Ashippun, Wisconsin
Current Conditions -  °F | °C
As of 11:35 PM on Saturday 22 Nov 2014 (Local Time) from KRYV Reporting Station
Overcast Overcast  
Wind Chill: 41°   Ceiling: 2100
Heat Index: 46°   Visibility: 7mi
Dew Point: 46°   Wind: 9mph
Humidity: 100%   Direction: 170°S
Pressure: 29.75"   Gusts: NA
Location:  43.21°N, 88.52°W
Report Text: KRYV 230535Z AUTO 17008KT 7SM BKN021 OVC028 08/08 A2975 RMK AO2 T00780078
Loading
Personal Weather Stations






























Interactive Weather Map New forecast layout! Learn more

10-Day Weather Forecast

Advertisements
Track Severe Weather on mobile